createdAt,value
2017-08-09T00:02:17.317Z,90.80
2017-08-09T00:04:44.838Z,90.90
2017-08-09T00:07:12.340Z,91.10
2017-08-09T00:09:39.848Z,91.20
2017-08-09T00:12:07.334Z,91.10
2017-08-09T00:14:34.852Z,91.20
2017-08-09T00:17:02.340Z,91.10
2017-08-09T00:19:29.848Z,91.30
2017-08-09T00:21:57.344Z,91.50
2017-08-09T00:24:24.864Z,91.60
2017-08-09T00:26:52.364Z,91.40
2017-08-09T00:29:19.889Z,91.50
2017-08-09T00:31:47.384Z,91.50
2017-08-09T00:34:14.910Z,91.40
2017-08-09T00:36:42.421Z,91.30
2017-08-09T00:39:09.948Z,91.30
2017-08-09T00:41:37.445Z,91.30
2017-08-09T00:44:04.989Z,91.30
2017-08-09T00:46:32.528Z,91.50
2017-08-09T00:49:00.051Z,91.60
2017-08-09T00:51:27.566Z,91.70
2017-08-09T00:53:55.078Z,91.90
2017-08-09T00:56:22.586Z,91.70
2017-08-09T00:58:50.111Z,91.70
2017-08-09T01:01:17.612Z,91.90
2017-08-09T01:03:45.120Z,91.80
2017-08-09T01:06:12.632Z,92.20
2017-08-09T01:08:40.148Z,91.90
2017-08-09T01:11:07.660Z,91.80
2017-08-09T01:13:35.168Z,92.00
2017-08-09T01:16:02.665Z,91.90
2017-08-09T01:18:30.184Z,91.90
2017-08-09T01:20:57.690Z,91.70
2017-08-09T01:23:25.204Z,91.50
2017-08-09T01:25:52.708Z,91.70
2017-08-09T01:28:20.246Z,91.60
2017-08-09T01:30:47.769Z,91.70
2017-08-09T01:33:15.305Z,91.90
2017-08-09T01:35:42.856Z,91.90
2017-08-09T01:38:10.381Z,92.10
2017-08-09T01:40:37.888Z,91.90
2017-08-09T01:43:05.416Z,91.80
2017-08-09T01:45:32.932Z,91.80
2017-08-09T01:48:00.448Z,91.80
2017-08-09T01:50:27.944Z,91.70
2017-08-09T01:52:55.480Z,91.60
2017-08-09T01:55:22.990Z,91.60
2017-08-09T01:57:50.520Z,91.30
2017-08-09T02:00:18.031Z,91.30
2017-08-09T02:02:45.611Z,91.30
2017-08-09T02:05:13.123Z,91.20
2017-08-09T02:07:40.651Z,91.00
2017-08-09T02:10:08.145Z,91.00
2017-08-09T02:12:35.668Z,91.20
2017-08-09T02:15:03.194Z,91.20
2017-08-09T02:17:30.750Z,91.20
2017-08-09T02:19:58.277Z,90.90
2017-08-09T02:22:25.824Z,91.20
2017-08-09T02:24:53.330Z,91.10
2017-08-09T02:27:20.840Z,91.00
2017-08-09T02:29:48.367Z,90.70
2017-08-09T02:32:16.111Z,90.80
2017-08-09T02:34:43.633Z,90.70
2017-08-09T02:37:11.200Z,90.30
2017-08-09T02:39:38.703Z,90.40
2017-08-09T02:42:06.220Z,90.20
2017-08-09T02:44:33.716Z,90.20
2017-08-09T02:47:01.232Z,90.00
2017-08-09T02:49:28.726Z,89.10
2017-08-09T02:51:56.249Z,89.00
2017-08-09T02:54:23.756Z,89.60
2017-08-09T02:56:51.249Z,88.90
2017-08-09T02:59:18.764Z,89.10
2017-08-09T03:01:46.272Z,89.10
2017-08-09T03:04:13.792Z,88.80
2017-08-09T03:06:41.296Z,88.80
2017-08-09T03:09:08.814Z,89.20
2017-08-09T03:11:36.321Z,88.80
2017-08-09T03:14:03.841Z,89.00
2017-08-09T03:16:31.345Z,88.40
2017-08-09T03:18:58.856Z,88.80
2017-08-09T03:21:26.354Z,88.50
2017-08-09T03:23:53.871Z,88.10
2017-08-09T03:26:21.368Z,88.30
2017-08-09T03:28:48.880Z,88.20
2017-08-09T03:31:16.376Z,88.10
2017-08-09T03:33:43.895Z,87.90
2017-08-09T03:36:11.401Z,88.00
2017-08-09T03:38:38.921Z,88.00
2017-08-09T03:41:06.426Z,88.10
2017-08-09T03:43:33.936Z,87.50
2017-08-09T03:46:01.441Z,87.50
2017-08-09T03:48:28.956Z,87.70
2017-08-09T03:50:56.472Z,87.60
2017-08-09T03:53:23.992Z,87.40
2017-08-09T03:55:51.497Z,88.10
2017-08-09T03:58:19.019Z,88.10
2017-08-09T04:00:46.516Z,88.30
2017-08-09T04:03:14.046Z,88.70
2017-08-09T04:05:41.556Z,88.70
2017-08-09T04:08:09.077Z,88.30
2017-08-09T04:10:36.583Z,87.70
2017-08-09T04:13:04.104Z,87.50
2017-08-09T04:15:31.601Z,87.40
2017-08-09T04:17:59.115Z,87.70
2017-08-09T04:20:26.617Z,88.00
2017-08-09T04:22:54.132Z,87.90
2017-08-09T04:25:21.632Z,88.00
2017-08-09T04:27:49.148Z,87.80
2017-08-09T04:30:16.644Z,87.50
2017-08-09T04:32:44.168Z,87.40
2017-08-09T04:35:11.665Z,86.70
2017-08-09T04:37:39.180Z,86.40
2017-08-09T04:40:06.672Z,87.00
2017-08-09T04:42:34.188Z,86.70
2017-08-09T04:45:01.688Z,86.80
2017-08-09T04:47:29.212Z,87.10
2017-08-09T04:49:56.708Z,86.80
2017-08-09T04:52:24.215Z,86.50
2017-08-09T04:54:51.713Z,85.80
2017-08-09T04:57:19.225Z,85.40
2017-08-09T04:59:46.720Z,85.00
2017-08-09T05:02:14.239Z,84.70
2017-08-09T05:04:41.744Z,84.80
2017-08-09T05:07:09.274Z,84.40
2017-08-09T05:09:36.772Z,81.70
2017-08-09T05:12:04.288Z,76.30
2017-08-09T05:14:31.800Z,73.70
2017-08-09T05:16:59.312Z,74.00
2017-08-09T05:19:26.805Z,75.50
2017-08-09T05:21:54.312Z,76.40
2017-08-09T05:24:21.816Z,78.40
2017-08-09T05:26:49.369Z,79.50
2017-08-09T05:29:16.868Z,80.10
2017-08-09T05:31:44.396Z,80.50
2017-08-09T05:34:11.908Z,81.10
2017-08-09T05:36:39.422Z,80.80
2017-08-09T05:39:06.924Z,80.20
2017-08-09T05:41:34.442Z,81.10
2017-08-09T05:44:01.942Z,81.40
2017-08-09T05:46:29.461Z,83.40
2017-08-09T05:48:56.971Z,83.90
2017-08-09T05:51:24.489Z,84.60
2017-08-09T05:53:51.980Z,84.70
2017-08-09T05:56:19.496Z,84.90
2017-08-09T05:58:46.990Z,84.80
2017-08-09T06:01:14.512Z,85.30
2017-08-09T06:03:42.000Z,85.80
2017-08-09T06:06:09.516Z,84.20
2017-08-09T06:08:37.003Z,84.10
2017-08-09T06:11:04.517Z,84.10
2017-08-09T06:13:32.012Z,83.80
2017-08-09T06:15:59.500Z,80.40
2017-08-09T06:18:27.014Z,80.30
2017-08-09T06:20:54.821Z,79.90
2017-08-09T06:23:22.337Z,80.40
2017-08-09T06:25:50.065Z,79.30
2017-08-09T06:28:17.582Z,79.00
2017-08-09T06:30:45.493Z,78.70
2017-08-09T06:33:13.467Z,77.80
2017-08-09T06:35:40.968Z,77.80
2017-08-09T06:38:08.481Z,77.60
2017-08-09T06:40:35.977Z,78.40
2017-08-09T06:43:03.493Z,78.30
2017-08-09T06:45:31.412Z,77.00
2017-08-09T06:47:59.305Z,77.20
2017-08-09T06:50:26.827Z,77.80
2017-08-09T06:52:54.745Z,77.30
2017-08-09T06:55:22.270Z,78.10
2017-08-09T06:57:49.789Z,76.80
2017-08-09T07:00:17.275Z,76.30
2017-08-09T07:02:44.787Z,76.10
2017-08-09T07:05:12.280Z,75.40
2017-08-09T07:07:40.276Z,75.30
2017-08-09T07:10:07.783Z,75.00
2017-08-09T07:12:35.291Z,74.50
2017-08-09T07:15:02.796Z,74.50
2017-08-09T07:17:30.284Z,74.40
2017-08-09T07:19:57.800Z,73.00
2017-08-09T07:22:25.292Z,67.60
2017-08-09T07:24:52.799Z,65.90
2017-08-09T07:27:20.312Z,65.60
2017-08-09T07:29:47.837Z,64.90
2017-08-09T07:32:15.327Z,67.40
2017-08-09T07:34:43.044Z,67.30
2017-08-09T07:37:10.548Z,68.60
2017-08-09T07:39:38.048Z,68.10
2017-08-09T07:42:05.572Z,68.20
2017-08-09T07:44:33.068Z,67.90
2017-08-09T07:47:00.592Z,67.60
2017-08-09T07:49:28.081Z,67.10
2017-08-09T07:51:55.572Z,66.40
2017-08-09T07:54:23.088Z,66.10
2017-08-09T07:56:50.585Z,66.20
2017-08-09T07:59:18.098Z,66.50
2017-08-09T08:01:45.592Z,65.50
2017-08-09T08:04:13.104Z,66.20
2017-08-09T08:06:40.601Z,64.40
2017-08-09T08:09:08.098Z,64.30
2017-08-09T08:11:35.613Z,64.70
2017-08-09T08:14:03.105Z,64.90
2017-08-09T08:16:30.620Z,65.50
2017-08-09T08:18:58.121Z,64.90
2017-08-09T08:21:25.630Z,64.60
2017-08-09T08:23:53.146Z,64.20
2017-08-09T08:26:20.640Z,64.60
2017-08-09T08:28:48.162Z,64.20
2017-08-09T08:31:15.659Z,66.10
2017-08-09T08:33:43.185Z,65.30
2017-08-09T08:36:10.687Z,65.70
2017-08-09T08:38:38.214Z,64.40
2017-08-09T08:41:05.697Z,63.40
2017-08-09T08:43:33.208Z,64.40
2017-08-09T08:46:00.708Z,63.60
2017-08-09T08:48:28.247Z,62.50
2017-08-09T08:50:55.778Z,63.50
2017-08-09T08:53:23.282Z,62.40
2017-08-09T08:55:50.801Z,63.90
2017-08-09T08:58:18.296Z,62.50
2017-08-09T09:00:45.780Z,64.00
2017-08-09T09:03:13.288Z,65.20
2017-08-09T09:05:40.797Z,65.50
2017-08-09T09:08:08.308Z,66.00
2017-08-09T09:10:35.800Z,64.90
2017-08-09T09:13:03.313Z,63.90
2017-08-09T09:15:30.809Z,65.70
2017-08-09T09:17:58.313Z,66.40
2017-08-09T09:20:25.816Z,68.30
2017-08-09T09:22:53.316Z,68.30
2017-08-09T09:25:20.848Z,67.90
2017-08-09T09:27:48.349Z,69.00
2017-08-09T09:30:15.881Z,68.50
2017-08-09T09:32:43.377Z,69.40
2017-08-09T09:35:10.881Z,69.90
2017-08-09T09:37:38.397Z,70.00
2017-08-09T09:40:05.890Z,70.10
2017-08-09T09:42:33.410Z,67.40
2017-08-09T09:45:00.924Z,67.40
2017-08-09T09:47:28.415Z,65.70
2017-08-09T09:49:55.942Z,66.90
2017-08-09T09:52:23.434Z,65.70
2017-08-09T09:54:50.956Z,64.70
2017-08-09T09:57:18.443Z,65.40
2017-08-09T09:59:45.972Z,62.80
2017-08-09T10:02:13.465Z,63.10
2017-08-09T10:04:40.968Z,62.90
2017-08-09T10:07:08.489Z,62.00
2017-08-09T10:09:36.002Z,62.50
2017-08-09T10:12:03.528Z,62.20
2017-08-09T10:14:31.042Z,62.40
2017-08-09T10:16:58.558Z,60.10
2017-08-09T10:19:26.064Z,59.50
2017-08-09T10:21:53.576Z,60.00
2017-08-09T10:24:21.088Z,58.60
2017-08-09T10:26:48.582Z,57.40
2017-08-09T10:29:16.180Z,55.60
2017-08-09T10:31:43.732Z,53.80
2017-08-09T10:34:11.254Z,55.20
2017-08-09T10:36:38.744Z,55.40
2017-08-09T10:39:06.244Z,56.20
2017-08-09T10:41:33.756Z,58.00
2017-08-09T10:44:01.253Z,59.90
2017-08-09T10:46:28.768Z,59.90
2017-08-09T10:48:56.259Z,59.30
2017-08-09T10:51:23.759Z,58.90
2017-08-09T10:53:51.286Z,58.00
2017-08-09T10:56:18.789Z,58.00
2017-08-09T10:58:46.309Z,56.70
2017-08-09T11:01:14.015Z,56.50
2017-08-09T11:03:41.528Z,56.60
2017-08-09T11:06:09.026Z,57.20
2017-08-09T11:08:36.517Z,56.20
2017-08-09T11:11:04.036Z,56.30
2017-08-09T11:13:31.534Z,56.20
2017-08-09T11:15:59.076Z,56.40
2017-08-09T11:18:26.573Z,57.60
2017-08-09T11:20:54.144Z,57.40
2017-08-09T11:23:21.671Z,58.20
2017-08-09T11:25:49.164Z,57.40
2017-08-09T11:28:16.901Z,56.70
2017-08-09T11:30:44.401Z,56.60
2017-08-09T11:33:12.575Z,56.50
2017-08-09T11:35:40.077Z,57.70
2017-08-09T11:38:07.576Z,56.10
2017-08-09T11:40:35.080Z,56.30
2017-08-09T11:43:02.580Z,56.20
2017-08-09T11:45:30.084Z,55.80
2017-08-09T11:47:57.617Z,56.20
2017-08-09T11:50:25.115Z,55.90
2017-08-09T11:52:52.914Z,56.80
2017-08-09T11:55:20.463Z,55.90
2017-08-09T11:57:48.035Z,56.60
2017-08-09T12:00:15.532Z,56.40
2017-08-09T12:02:43.086Z,55.30
2017-08-09T12:05:11.188Z,56.60
2017-08-09T12:07:38.731Z,56.20
2017-08-09T12:10:06.309Z,56.20
2017-08-09T12:12:33.833Z,56.00
2017-08-09T12:15:01.357Z,56.00
2017-08-09T12:17:29.121Z,55.30
2017-08-09T12:19:56.646Z,55.20
2017-08-09T12:22:24.244Z,55.40
2017-08-09T12:24:51.774Z,55.00
2017-08-09T12:27:19.343Z,54.10
2017-08-09T12:29:46.909Z,53.80
2017-08-09T12:32:14.449Z,54.30
2017-08-09T12:34:41.973Z,55.40
2017-08-09T12:37:09.490Z,56.80
2017-08-09T12:39:36.993Z,56.10
2017-08-09T12:42:04.594Z,56.50
2017-08-09T12:44:32.113Z,57.70
2017-08-09T12:46:59.625Z,57.90
2017-08-09T12:49:27.123Z,58.60
2017-08-09T12:51:54.618Z,58.60
2017-08-09T12:54:22.140Z,59.00
2017-08-09T12:56:49.633Z,58.90
2017-08-09T12:59:17.134Z,59.30
2017-08-09T13:01:44.644Z,58.70
2017-08-09T13:04:12.150Z,58.40
2017-08-09T13:06:39.976Z,57.40
2017-08-09T13:09:07.486Z,57.40
2017-08-09T13:11:34.976Z,56.30
2017-08-09T13:14:02.471Z,57.30
2017-08-09T13:16:29.993Z,55.30
2017-08-09T13:18:57.484Z,55.90
2017-08-09T13:21:25.041Z,55.90
2017-08-09T13:23:52.541Z,55.70
2017-08-09T13:26:20.069Z,55.50
2017-08-09T13:28:47.569Z,55.40
2017-08-09T13:31:15.101Z,55.60
2017-08-09T13:33:42.595Z,55.80
2017-08-09T13:36:10.084Z,56.80
2017-08-09T13:38:37.607Z,57.50
2017-08-09T13:41:05.104Z,55.60
2017-08-09T13:43:32.620Z,55.80
2017-08-09T13:46:00.122Z,56.70
2017-08-09T13:48:27.616Z,57.30
2017-08-09T13:50:55.129Z,57.60
2017-08-09T13:53:22.628Z,57.90
2017-08-09T13:55:50.188Z,57.70
2017-08-09T13:58:17.688Z,58.20
2017-08-09T14:00:45.175Z,57.60
2017-08-09T14:03:12.714Z,58.40
2017-08-09T14:05:40.213Z,58.60
2017-08-09T14:08:07.728Z,58.40
2017-08-09T14:10:35.222Z,58.70
2017-08-09T14:13:05.680Z,59.00
2017-08-09T14:15:33.195Z,59.30
2017-08-09T14:18:00.716Z,59.10
2017-08-09T14:20:28.217Z,59.30
2017-08-09T14:22:55.705Z,59.60
2017-08-09T14:25:23.217Z,59.00
2017-08-09T14:27:50.729Z,59.00
2017-08-09T14:30:18.249Z,60.60
2017-08-09T14:32:45.740Z,58.60
2017-08-09T14:35:13.258Z,58.60
2017-08-09T14:37:40.779Z,58.90
2017-08-09T14:40:08.296Z,59.60
2017-08-09T14:42:35.813Z,59.20
2017-08-09T14:45:03.311Z,60.80
2017-08-09T14:47:30.804Z,60.60
2017-08-09T14:49:58.312Z,60.50
2017-08-09T14:52:25.798Z,59.60
2017-08-09T14:54:53.322Z,60.00
2017-08-09T14:57:20.816Z,60.70
2017-08-09T14:59:48.312Z,60.60
2017-08-09T15:02:15.834Z,60.50
2017-08-09T15:04:43.339Z,60.90
2017-08-09T15:07:10.847Z,60.60
2017-08-09T15:09:38.340Z,61.70
2017-08-09T15:12:05.842Z,61.60
2017-08-09T15:14:33.348Z,62.50
2017-08-09T15:17:00.840Z,62.30
2017-08-09T15:19:28.364Z,63.10
2017-08-09T15:21:55.862Z,63.50
2017-08-09T15:24:23.361Z,63.40
2017-08-09T15:26:50.940Z,64.00
2017-08-09T15:29:18.438Z,63.40
2017-08-09T15:31:45.955Z,63.80
2017-08-09T15:34:13.455Z,64.00
2017-08-09T15:36:40.954Z,64.60
2017-08-09T15:39:08.473Z,64.80
2017-08-09T15:41:35.988Z,64.60
2017-08-09T15:44:03.494Z,64.40
2017-08-09T15:46:30.997Z,64.60
2017-08-09T15:48:58.508Z,64.30
2017-08-09T15:51:26.004Z,64.60
2017-08-09T15:53:53.534Z,63.50
2017-08-09T15:56:21.048Z,64.80
2017-08-09T15:58:48.548Z,63.60
2017-08-09T16:01:16.077Z,62.90
2017-08-09T16:03:43.592Z,63.50
2017-08-09T16:06:12.043Z,63.60
2017-08-09T16:08:39.552Z,63.90
2017-08-09T16:11:07.413Z,63.70
2017-08-09T16:13:34.944Z,63.70
2017-08-09T16:16:02.428Z,63.60
2017-08-09T16:18:29.929Z,63.70
2017-08-09T16:20:57.424Z,63.90
2017-08-09T16:23:24.989Z,64.00
2017-08-09T16:25:52.498Z,64.70
2017-08-09T16:28:20.004Z,65.60
2017-08-09T16:30:47.570Z,65.60
2017-08-09T16:33:15.095Z,66.20
2017-08-09T16:35:42.605Z,66.60
2017-08-09T16:38:10.125Z,65.60
2017-08-09T16:40:37.635Z,66.50
2017-08-09T16:43:05.159Z,67.20
2017-08-09T16:45:32.670Z,67.30
2017-08-09T16:48:00.168Z,67.40
2017-08-09T16:50:29.096Z,67.10
2017-08-09T16:52:56.605Z,66.70
2017-08-09T16:55:24.137Z,67.50
2017-08-09T16:57:51.636Z,67.20
2017-08-09T17:00:19.123Z,66.90
2017-08-09T17:02:46.680Z,66.90
2017-08-09T17:05:15.109Z,67.40
2017-08-09T17:07:42.630Z,67.60
2017-08-09T17:10:10.130Z,68.10
2017-08-09T17:12:37.628Z,68.30
2017-08-09T17:15:05.147Z,68.50
2017-08-09T17:17:32.650Z,68.40
2017-08-09T17:20:00.169Z,68.30
2017-08-09T17:22:27.682Z,68.50
2017-08-09T17:24:55.174Z,68.50
2017-08-09T17:27:22.732Z,68.30
2017-08-09T17:29:50.232Z,68.30
2017-08-09T17:32:17.759Z,68.00
2017-08-09T17:34:45.252Z,67.50
2017-08-09T17:37:13.176Z,68.10
2017-08-09T17:39:40.701Z,68.10
2017-08-09T17:42:08.409Z,68.30
2017-08-09T17:44:35.936Z,68.30
2017-08-09T17:47:03.437Z,68.10
2017-08-09T17:49:30.925Z,68.40
2017-08-09T17:51:59.120Z,68.20
2017-08-09T17:54:26.606Z,68.00
2017-08-09T17:56:54.121Z,69.10
2017-08-09T17:59:21.613Z,69.10
2017-08-09T18:01:49.121Z,68.20
2017-08-09T18:04:16.731Z,68.70
2017-08-09T18:06:44.235Z,68.60
2017-08-09T18:09:12.013Z,68.90
2017-08-09T18:11:39.506Z,69.30
2017-08-09T18:14:07.012Z,69.10
2017-08-09T18:16:34.516Z,69.40
2017-08-09T18:19:02.014Z,68.70
2017-08-09T18:21:29.529Z,69.00
2017-08-09T18:23:57.030Z,69.10
2017-08-09T18:26:24.536Z,68.70
2017-08-09T18:28:52.061Z,68.70
2017-08-09T18:31:19.555Z,68.00
2017-08-09T18:33:47.077Z,68.60
2017-08-09T18:36:14.576Z,68.30
2017-08-09T18:38:42.071Z,68.40
2017-08-09T18:41:09.592Z,68.20
2017-08-09T18:43:37.106Z,68.20
2017-08-09T18:46:04.640Z,68.10
2017-08-09T18:48:32.150Z,67.50
2017-08-09T18:50:59.660Z,67.30
2017-08-09T18:53:27.179Z,66.80
2017-08-09T18:55:54.678Z,66.70
2017-08-09T18:58:22.210Z,66.80
2017-08-09T19:00:49.723Z,66.40
2017-08-09T19:03:17.224Z,66.40
2017-08-09T19:05:44.744Z,66.20
2017-08-09T19:08:12.249Z,66.20
2017-08-09T19:10:39.753Z,66.40
2017-08-09T19:13:07.265Z,66.40
2017-08-09T19:15:35.682Z,66.00
2017-08-09T19:18:03.200Z,66.40
2017-08-09T19:20:30.708Z,66.60
2017-08-09T19:22:58.210Z,66.20
2017-08-09T19:25:25.725Z,66.40
2017-08-09T19:27:53.220Z,66.30
2017-08-09T19:30:20.743Z,66.30
2017-08-09T19:32:48.241Z,66.60
2017-08-09T19:35:15.753Z,67.00
2017-08-09T19:37:43.286Z,67.00
2017-08-09T19:40:10.794Z,67.00
2017-08-09T19:42:38.324Z,67.10
2017-08-09T19:45:05.821Z,66.90
2017-08-09T19:47:33.349Z,66.80
2017-08-09T19:50:00.875Z,67.00
2017-08-09T19:52:28.364Z,67.10
2017-08-09T19:54:55.881Z,68.40
2017-08-09T19:57:23.398Z,73.20
2017-08-09T19:59:50.893Z,78.30
2017-08-09T20:02:18.416Z,91.60
2017-08-09T20:04:45.921Z,93.80
2017-08-09T20:07:13.445Z,95.40
2017-08-09T20:09:40.960Z,92.00
2017-08-09T20:12:08.465Z,95.90
2017-08-09T20:14:35.979Z,94.10
2017-08-09T20:17:03.473Z,96.40
2017-08-09T20:19:30.998Z,92.50
2017-08-09T20:21:58.504Z,95.60
2017-08-09T20:24:26.014Z,94.10
2017-08-09T20:26:53.628Z,95.00
2017-08-09T20:29:21.148Z,96.40
2017-08-09T20:31:48.669Z,94.50
2017-08-09T20:34:16.168Z,96.50
2017-08-09T20:36:43.660Z,96.40
2017-08-09T20:39:11.197Z,98.10
2017-08-09T20:41:38.705Z,99.00
2017-08-09T20:44:06.245Z,99.40
2017-08-09T20:46:33.756Z,99.30
2017-08-09T20:49:01.279Z,99.90
2017-08-09T20:51:28.777Z,99.90
2017-08-09T20:53:56.276Z,99.90
2017-08-09T20:56:23.796Z,99.90
2017-08-09T20:58:51.293Z,99.60
2017-08-09T21:01:18.834Z,99.90
2017-08-09T21:03:46.642Z,99.90
2017-08-09T21:06:14.155Z,99.90
2017-08-09T21:08:41.671Z,99.90
2017-08-09T21:11:09.176Z,99.90
2017-08-09T21:13:36.708Z,99.90
2017-08-09T21:16:04.217Z,99.90
2017-08-09T21:18:31.736Z,99.90
2017-08-09T21:20:59.255Z,99.90
2017-08-09T21:23:26.757Z,99.90
2017-08-09T21:25:54.272Z,99.90
2017-08-09T21:28:22.273Z,99.90
2017-08-09T21:30:49.793Z,99.90
2017-08-09T21:33:17.300Z,99.90
2017-08-09T21:35:45.729Z,99.90
2017-08-09T21:38:13.230Z,99.90
2017-08-09T21:40:40.733Z,99.90
2017-08-09T21:43:08.249Z,99.90
2017-08-09T21:45:36.660Z,99.90
2017-08-09T21:48:04.290Z,99.90
2017-08-09T21:50:31.784Z,99.90
2017-08-09T21:52:59.299Z,99.90
2017-08-09T21:55:26.801Z,99.90
2017-08-09T21:57:54.308Z,99.90
2017-08-09T22:00:21.808Z,99.90
2017-08-09T22:02:49.324Z,99.90
2017-08-09T22:05:16.836Z,99.90
2017-08-09T22:07:44.348Z,99.90
2017-08-09T22:10:11.861Z,99.90
2017-08-09T22:12:39.376Z,99.90
2017-08-09T22:15:06.873Z,99.90
2017-08-09T22:17:34.398Z,99.90
2017-08-09T22:20:01.904Z,99.90
2017-08-09T22:22:29.423Z,99.90
2017-08-09T22:24:56.942Z,99.90
2017-08-09T22:27:24.480Z,99.90
2017-08-09T22:29:51.977Z,99.90
2017-08-09T22:32:19.504Z,99.90
2017-08-09T22:34:47.008Z,99.90
2017-08-09T22:37:14.544Z,99.90
2017-08-09T22:39:42.044Z,99.90
2017-08-09T22:42:09.793Z,99.90
2017-08-09T22:44:37.293Z,99.90
2017-08-09T22:47:04.817Z,99.90
2017-08-09T22:49:32.308Z,99.90
2017-08-09T22:51:59.825Z,99.90
2017-08-09T22:54:27.324Z,99.90
2017-08-09T22:56:54.870Z,99.90
2017-08-09T22:59:22.368Z,99.90
2017-08-09T23:01:49.927Z,99.90
2017-08-09T23:04:17.437Z,99.90
2017-08-09T23:06:44.960Z,99.90
2017-08-09T23:09:12.465Z,99.90
2017-08-09T23:11:39.968Z,99.90
2017-08-09T23:14:07.468Z,99.90
2017-08-09T23:16:34.984Z,99.90
2017-08-09T23:19:02.490Z,99.90
2017-08-09T23:21:30.020Z,99.90
2017-08-09T23:23:57.525Z,99.90
2017-08-09T23:26:25.018Z,99.90
2017-08-09T23:28:52.541Z,99.90
2017-08-09T23:31:20.045Z,99.90
2017-08-09T23:33:47.561Z,99.90
2017-08-09T23:36:15.908Z,99.90
2017-08-09T23:38:43.430Z,99.90
2017-08-09T23:41:10.921Z,99.90
2017-08-09T23:43:38.667Z,99.90
2017-08-09T23:46:06.169Z,99.90
2017-08-09T23:48:33.688Z,99.90
2017-08-09T23:51:01.192Z,99.90
2017-08-09T23:53:28.718Z,99.90
2017-08-09T23:55:56.236Z,99.90
2017-08-09T23:58:23.756Z,99.90
